createdAt,value
2024-05-09T00:00:10.506Z,33.54
2024-05-09T00:01:08.145Z,33.54
2024-05-09T00:02:07.111Z,33.56
2024-05-09T00:03:07.358Z,33.51
2024-05-09T00:04:07.112Z,33.53
2024-05-09T00:05:07.273Z,33.53
2024-05-09T00:06:07.215Z,33.45
2024-05-09T00:07:07.094Z,33.49
2024-05-09T00:08:07.139Z,33.45
2024-05-09T00:09:07.130Z,33.49
2024-05-09T00:10:14.526Z,33.43
2024-05-09T00:11:08.291Z,33.39
2024-05-09T00:12:07.265Z,33.43
2024-05-09T00:13:07.645Z,33.44
2024-05-09T00:14:07.224Z,33.43
2024-05-09T00:15:07.208Z,33.43
2024-05-09T00:16:07.231Z,33.44
2024-05-09T00:17:07.294Z,33.45
2024-05-09T00:18:08.041Z,33.43
2024-05-09T00:19:07.344Z,33.44
2024-05-09T00:20:14.324Z,33.45
2024-05-09T00:21:08.539Z,33.59
2024-05-09T00:22:07.327Z,33.53
2024-05-09T00:23:07.857Z,33.47
2024-05-09T00:24:07.319Z,33.44
2024-05-09T00:25:07.325Z,33.47
2024-05-09T00:26:07.462Z,33.37
2024-05-09T00:27:08.469Z,33.49
2024-05-09T00:28:07.357Z,33.40
2024-05-09T00:29:07.391Z,33.43
2024-05-09T00:30:07.542Z,33.43
2024-05-09T00:31:07.488Z,33.40
2024-05-09T00:32:07.593Z,33.45
2024-05-09T00:33:09.206Z,33.37
2024-05-09T00:34:07.700Z,33.44
2024-05-09T00:35:07.702Z,33.38
2024-05-09T00:36:07.643Z,33.37
2024-05-09T00:37:07.633Z,33.40
2024-05-09T00:38:07.736Z,33.37
2024-05-09T00:39:07.633Z,33.33
2024-05-09T00:40:14.902Z,33.35
2024-05-09T00:41:08.676Z,33.31
2024-05-09T00:42:07.656Z,33.31
2024-05-09T00:43:07.649Z,33.33
2024-05-09T00:44:07.701Z,33.35
2024-05-09T00:45:07.667Z,33.31
2024-05-09T00:46:07.671Z,33.28
2024-05-09T00:47:07.942Z,33.30
2024-05-09T00:48:09.096Z,33.27
2024-05-09T00:49:07.710Z,33.31
2024-05-09T00:50:12.718Z,33.38
2024-05-09T00:51:08.700Z,33.37
2024-05-09T00:52:07.679Z,33.37
2024-05-09T00:53:07.751Z,33.37
2024-05-09T00:54:07.674Z,33.25
2024-05-09T00:55:07.671Z,33.31
2024-05-09T00:56:07.704Z,33.24
2024-05-09T00:57:07.682Z,33.28
2024-05-09T00:58:07.711Z,33.28
2024-05-09T00:59:07.738Z,33.30
2024-05-09T01:00:15.044Z,33.25
2024-05-09T01:01:08.774Z,33.31
2024-05-09T01:02:07.855Z,33.25
2024-05-09T01:03:08.467Z,33.28
2024-05-09T01:04:07.896Z,33.28
2024-05-09T01:05:07.839Z,33.25
2024-05-09T01:06:07.802Z,33.21
2024-05-09T01:07:07.783Z,33.21
2024-05-09T01:08:08.036Z,33.21
2024-05-09T01:09:07.823Z,33.18
2024-05-09T01:10:14.085Z,33.20
2024-05-09T01:11:08.987Z,33.20
2024-05-09T01:12:07.986Z,33.20
2024-05-09T01:13:07.896Z,33.14
2024-05-09T01:14:07.922Z,33.17
2024-05-09T01:15:07.885Z,33.17
2024-05-09T01:16:07.893Z,33.15
2024-05-09T01:17:07.968Z,33.14
2024-05-09T01:18:08.124Z,33.19
2024-05-09T01:19:08.112Z,33.16
2024-05-09T01:20:10.901Z,33.08
2024-05-09T01:21:09.026Z,33.11
2024-05-09T01:22:08.015Z,33.14
2024-05-09T01:23:08.097Z,33.14
2024-05-09T01:24:08.008Z,33.14
2024-05-09T01:25:08.013Z,33.15
2024-05-09T01:26:08.068Z,33.13
2024-05-09T01:27:08.021Z,33.08
2024-05-09T01:28:08.020Z,33.10
2024-05-09T01:29:08.115Z,33.07
2024-05-09T01:30:11.966Z,33.11
2024-05-09T01:31:09.144Z,33.12
2024-05-09T01:32:08.259Z,33.19
2024-05-09T01:33:09.995Z,33.16
2024-05-09T01:34:08.150Z,33.19
2024-05-09T01:35:08.152Z,33.19
2024-05-09T01:36:08.155Z,33.09
2024-05-09T01:37:08.166Z,33.14
2024-05-09T01:38:08.228Z,33.12
2024-05-09T01:39:08.169Z,33.15
2024-05-09T01:40:12.257Z,33.13
2024-05-09T01:41:09.203Z,33.12
2024-05-09T01:42:08.178Z,33.15
2024-05-09T01:43:08.938Z,33.15
2024-05-09T01:44:08.215Z,33.07
2024-05-09T01:45:08.169Z,33.11
2024-05-09T01:46:08.164Z,33.12
2024-05-09T01:47:08.346Z,33.09
2024-05-09T01:48:08.447Z,33.08
2024-05-09T01:49:08.392Z,33.09
2024-05-09T01:50:10.785Z,33.12
2024-05-09T01:51:08.471Z,33.12
2024-05-09T01:52:08.320Z,33.08
2024-05-09T01:53:08.418Z,33.08
2024-05-09T01:54:08.305Z,33.08
2024-05-09T01:55:08.288Z,33.08
2024-05-09T01:56:08.360Z,33.04
2024-05-09T01:57:08.309Z,32.97
2024-05-09T01:58:08.311Z,33.04
2024-05-09T01:59:08.363Z,33.00
2024-05-09T02:00:10.248Z,33.04
2024-05-09T02:01:08.347Z,33.01
2024-05-09T02:02:08.505Z,33.01
2024-05-09T02:03:08.601Z,33.05
2024-05-09T02:04:08.563Z,33.08
2024-05-09T02:05:08.632Z,33.14
2024-05-09T02:06:08.694Z,33.15
2024-05-09T02:07:08.531Z,33.07
2024-05-09T02:08:08.653Z,33.06
2024-05-09T02:09:08.680Z,33.11
2024-05-09T02:10:16.159Z,33.11
2024-05-09T02:11:09.856Z,33.06
2024-05-09T02:12:08.923Z,33.07
2024-05-09T02:13:08.777Z,33.08
2024-05-09T02:14:08.797Z,33.06
2024-05-09T02:15:08.758Z,33.09
2024-05-09T02:16:08.770Z,33.09
2024-05-09T02:17:08.886Z,33.02
2024-05-09T02:18:09.227Z,33.09
2024-05-09T02:19:08.867Z,33.05
2024-05-09T02:20:13.228Z,33.05
2024-05-09T02:21:09.913Z,33.06
2024-05-09T02:22:08.887Z,33.06
2024-05-09T02:23:09.156Z,33.05
2024-05-09T02:24:08.888Z,33.01
2024-05-09T02:25:08.884Z,33.05
2024-05-09T02:26:08.925Z,32.98
2024-05-09T02:27:08.911Z,33.02
2024-05-09T02:28:08.889Z,33.03
2024-05-09T02:29:08.915Z,33.04
2024-05-09T02:30:18.509Z,32.94
2024-05-09T02:31:09.979Z,32.99
2024-05-09T02:32:09.097Z,32.95
2024-05-09T02:33:10.075Z,32.95
2024-05-09T02:34:09.119Z,32.92
2024-05-09T02:35:09.008Z,32.92
2024-05-09T02:36:09.024Z,32.95
2024-05-09T02:37:09.434Z,32.94
2024-05-09T02:38:09.172Z,32.89
2024-05-09T02:39:09.000Z,32.92
2024-05-09T02:40:14.279Z,32.92
2024-05-09T02:41:10.076Z,32.91
2024-05-09T02:42:09.008Z,32.92
2024-05-09T02:43:10.439Z,33.04
2024-05-09T02:44:09.036Z,33.01
2024-05-09T02:45:09.033Z,32.97
2024-05-09T02:46:09.084Z,32.98
2024-05-09T02:47:09.289Z,32.98
2024-05-09T02:48:09.309Z,32.95
2024-05-09T02:49:09.310Z,32.96
2024-05-09T02:50:13.264Z,32.95
2024-05-09T02:51:10.527Z,32.92
2024-05-09T02:52:09.337Z,32.95
2024-05-09T02:53:10.029Z,33.00
2024-05-09T02:54:09.341Z,32.95
2024-05-09T02:55:09.346Z,32.93
2024-05-09T02:56:09.415Z,32.97
2024-05-09T02:57:09.355Z,32.90
2024-05-09T02:58:09.504Z,32.90
2024-05-09T02:59:09.421Z,32.97
2024-05-09T03:00:15.232Z,32.95
2024-05-09T03:01:10.490Z,32.95
2024-05-09T03:02:09.573Z,32.92
2024-05-09T03:03:11.281Z,32.90
2024-05-09T03:04:09.540Z,32.89
2024-05-09T03:05:09.547Z,32.89
2024-05-09T03:06:09.506Z,32.93
2024-05-09T03:07:09.483Z,32.89
2024-05-09T03:08:09.727Z,32.91
2024-05-09T03:09:09.480Z,32.82
2024-05-09T03:10:18.226Z,32.84
2024-05-09T03:11:10.615Z,32.82
2024-05-09T03:12:09.574Z,32.82
2024-05-09T03:13:09.473Z,32.82
2024-05-09T03:14:09.521Z,32.81
2024-05-09T03:15:09.469Z,32.78
2024-05-09T03:16:09.482Z,32.81
2024-05-09T03:17:09.545Z,32.79
2024-05-09T03:18:09.879Z,32.78
2024-05-09T03:19:09.623Z,32.75
2024-05-09T03:20:16.978Z,32.84
2024-05-09T03:21:10.704Z,32.77
2024-05-09T03:22:09.582Z,32.82
2024-05-09T03:23:10.380Z,32.81
2024-05-09T03:24:09.593Z,32.84
2024-05-09T03:25:09.624Z,32.88
2024-05-09T03:26:09.666Z,32.89
2024-05-09T03:27:09.599Z,32.92
2024-05-09T03:28:09.592Z,32.86
2024-05-09T03:29:09.609Z,32.90
2024-05-09T03:30:10.031Z,32.86
2024-05-09T03:31:09.705Z,32.90
2024-05-09T03:32:09.817Z,32.86
2024-05-09T03:33:10.068Z,32.90
2024-05-09T03:34:09.936Z,32.88
2024-05-09T03:35:09.936Z,32.84
2024-05-09T03:36:11.384Z,32.89
2024-05-09T03:37:10.044Z,32.85
2024-05-09T03:38:10.187Z,32.89
2024-05-09T03:39:10.162Z,32.85
2024-05-09T03:40:17.537Z,32.82
2024-05-09T03:41:11.383Z,32.81
2024-05-09T03:42:10.219Z,32.80
2024-05-09T03:43:10.218Z,32.86
2024-05-09T03:44:10.257Z,32.82
2024-05-09T03:45:10.225Z,32.78
2024-05-09T03:46:10.221Z,32.79
2024-05-09T03:47:10.284Z,32.79
2024-05-09T03:48:10.568Z,32.82
2024-05-09T03:49:10.304Z,32.76
2024-05-09T03:50:18.121Z,32.82
2024-05-09T03:51:11.373Z,32.81
2024-05-09T03:52:10.331Z,32.81
2024-05-09T03:53:10.473Z,32.82
2024-05-09T03:54:10.328Z,32.79
2024-05-09T03:55:10.340Z,32.78
2024-05-09T03:56:10.347Z,32.76
2024-05-09T03:57:10.325Z,32.78
2024-05-09T03:58:10.328Z,32.72
2024-05-09T03:59:10.424Z,32.75
2024-05-09T04:00:17.657Z,32.76
2024-05-09T04:01:11.445Z,32.79
2024-05-09T04:02:10.498Z,32.81
2024-05-09T04:03:12.274Z,32.76
2024-05-09T04:04:10.450Z,32.75
2024-05-09T04:05:10.453Z,32.76
2024-05-09T04:06:10.442Z,32.84
2024-05-09T04:07:10.444Z,32.85
2024-05-09T04:08:11.189Z,32.82
2024-05-09T04:09:10.442Z,32.79
2024-05-09T04:10:20.578Z,32.80
2024-05-09T04:11:11.581Z,32.76
2024-05-09T04:12:10.597Z,32.81
2024-05-09T04:13:10.457Z,32.78
2024-05-09T04:14:10.498Z,32.82
2024-05-09T04:15:13.227Z,32.78
2024-05-09T04:16:10.457Z,32.81
2024-05-09T04:17:17.706Z,32.83
2024-05-09T04:18:17.691Z,32.83
2024-05-09T04:19:17.882Z,32.76
2024-05-09T04:20:28.735Z,32.72
2024-05-09T04:21:18.632Z,32.79
2024-05-09T04:22:17.681Z,32.80
2024-05-09T04:23:17.708Z,32.75
2024-05-09T04:24:17.657Z,32.79
2024-05-09T04:25:17.655Z,32.75
2024-05-09T04:26:17.680Z,32.78
2024-05-09T04:27:17.642Z,32.79
2024-05-09T04:28:17.642Z,32.77
2024-05-09T04:29:17.703Z,32.76
2024-05-09T04:30:25.769Z,32.76
2024-05-09T04:31:29.772Z,32.78
2024-05-09T04:32:29.963Z,32.76
2024-05-09T04:33:30.038Z,32.76
2024-05-09T04:34:29.835Z,32.75
2024-05-09T04:35:29.865Z,32.75
2024-05-09T04:36:29.786Z,32.76
2024-05-09T04:37:29.793Z,32.80
2024-05-09T04:38:29.808Z,32.85
2024-05-09T04:39:29.789Z,32.82
2024-05-09T04:40:34.192Z,32.89
2024-05-09T04:41:30.857Z,32.86
2024-05-09T04:42:29.800Z,32.89
2024-05-09T04:43:29.807Z,32.87
2024-05-09T04:44:29.857Z,32.92
2024-05-09T04:45:29.813Z,32.89
2024-05-09T04:46:29.803Z,32.90
2024-05-09T04:47:29.949Z,32.90
2024-05-09T04:48:30.007Z,32.99
2024-05-09T04:49:29.926Z,32.92
2024-05-09T04:50:36.326Z,32.95
2024-05-09T04:51:30.826Z,32.99
2024-05-09T04:52:29.823Z,32.96
2024-05-09T04:53:29.850Z,33.00
2024-05-09T04:54:35.982Z,32.99
2024-05-09T04:55:30.878Z,32.97
2024-05-09T04:56:29.890Z,32.95
2024-05-09T04:57:29.843Z,32.97
2024-05-09T04:58:29.844Z,32.99
2024-05-09T04:59:29.887Z,33.02
2024-05-09T05:00:35.668Z,32.96
2024-05-09T05:01:30.951Z,32.99
2024-05-09T05:02:29.957Z,32.97
2024-05-09T05:03:30.000Z,32.96
2024-05-09T05:04:29.906Z,32.97
2024-05-09T05:05:29.905Z,32.99
2024-05-09T05:06:29.857Z,32.99
2024-05-09T05:07:29.863Z,32.97
2024-05-09T05:08:29.886Z,32.99
2024-05-09T05:09:29.866Z,32.93
2024-05-09T05:10:35.692Z,33.00
2024-05-09T05:11:30.955Z,32.97
2024-05-09T05:12:29.953Z,32.99
2024-05-09T05:13:29.874Z,32.99
2024-05-09T05:14:29.937Z,32.99
2024-05-09T05:15:29.881Z,33.03
2024-05-09T05:16:29.885Z,33.05
2024-05-09T05:17:30.033Z,33.03
2024-05-09T05:18:29.970Z,33.05
2024-05-09T05:19:30.013Z,33.04
2024-05-09T05:20:33.635Z,33.00
2024-05-09T05:21:30.032Z,33.05
2024-05-09T05:22:29.947Z,32.99
2024-05-09T05:23:29.993Z,32.95
2024-05-09T05:24:29.947Z,32.97
2024-05-09T05:25:29.950Z,32.98
2024-05-09T05:26:29.993Z,32.98
2024-05-09T05:27:29.958Z,33.00
2024-05-09T05:28:29.953Z,32.98
2024-05-09T05:29:30.014Z,32.90
2024-05-09T05:30:34.490Z,32.96
2024-05-09T05:31:30.989Z,32.94
2024-05-09T05:32:30.076Z,32.90
2024-05-09T05:33:30.150Z,32.98
2024-05-09T05:34:29.968Z,32.96
2024-05-09T05:35:30.174Z,33.06
2024-05-09T05:36:29.976Z,32.98
2024-05-09T05:37:29.975Z,32.97
2024-05-09T05:38:30.077Z,32.95
2024-05-09T05:39:30.012Z,32.96
2024-05-09T05:40:36.246Z,32.96
2024-05-09T05:41:31.170Z,32.93
2024-05-09T05:42:30.110Z,32.87
2024-05-09T05:43:30.125Z,32.91
2024-05-09T05:44:30.174Z,32.90
2024-05-09T05:45:30.117Z,32.93
2024-05-09T05:46:30.115Z,32.90
2024-05-09T05:47:30.221Z,32.91
2024-05-09T05:48:30.165Z,32.84
2024-05-09T05:49:30.229Z,32.86
2024-05-09T05:50:35.815Z,32.81
2024-05-09T05:51:31.217Z,32.80
2024-05-09T05:52:30.225Z,32.81
2024-05-09T05:53:30.325Z,32.86
2024-05-09T05:54:30.233Z,32.79
2024-05-09T05:55:30.269Z,32.80
2024-05-09T05:56:30.386Z,32.86
2024-05-09T05:57:30.222Z,32.82
2024-05-09T05:58:30.226Z,32.84
2024-05-09T05:59:30.268Z,32.86
2024-05-09T06:00:37.741Z,32.83
2024-05-09T06:01:31.383Z,32.84
2024-05-09T06:02:30.418Z,32.80
2024-05-09T06:03:30.444Z,32.78
2024-05-09T06:04:30.325Z,32.79
2024-05-09T06:05:30.334Z,32.83
2024-05-09T06:06:30.331Z,32.83
2024-05-09T06:07:30.328Z,32.85
2024-05-09T06:08:30.697Z,32.80
2024-05-09T06:09:30.333Z,32.77
2024-05-09T06:10:37.691Z,32.79
2024-05-09T06:11:31.625Z,32.80
2024-05-09T06:12:30.383Z,32.79
2024-05-09T06:13:30.368Z,32.79
2024-05-09T06:14:30.442Z,32.83
2024-05-09T06:15:30.359Z,32.77
2024-05-09T06:16:30.343Z,32.77
2024-05-09T06:17:30.490Z,32.76
2024-05-09T06:18:30.540Z,32.73
2024-05-09T06:19:30.724Z,32.68
2024-05-09T06:20:35.926Z,32.66
2024-05-09T06:21:31.365Z,32.64
2024-05-09T06:22:30.395Z,32.64
2024-05-09T06:23:30.376Z,32.62
2024-05-09T06:24:30.363Z,32.67
2024-05-09T06:25:30.370Z,32.70
2024-05-09T06:26:30.410Z,32.75
2024-05-09T06:27:30.365Z,32.75
2024-05-09T06:28:30.365Z,32.67
2024-05-09T06:29:30.457Z,32.75
2024-05-09T06:30:37.809Z,32.66
2024-05-09T06:31:31.384Z,32.66
2024-05-09T06:32:30.492Z,32.66
2024-05-09T06:33:30.549Z,32.72
2024-05-09T06:34:30.512Z,32.64
2024-05-09T06:35:30.570Z,32.66
2024-05-09T06:36:30.382Z,32.66
2024-05-09T06:37:30.398Z,32.53
2024-05-09T06:38:30.451Z,32.57
2024-05-09T06:39:30.384Z,32.58
2024-05-09T06:40:37.072Z,32.58
2024-05-09T06:41:31.451Z,32.54
2024-05-09T06:42:30.390Z,32.55
2024-05-09T06:43:30.395Z,32.55
2024-05-09T06:44:30.472Z,32.55
2024-05-09T06:45:30.396Z,32.53
2024-05-09T06:46:30.396Z,32.47
2024-05-09T06:47:30.546Z,32.49
2024-05-09T06:48:30.506Z,32.46
2024-05-09T06:49:30.527Z,32.42
2024-05-09T06:50:35.823Z,32.41
2024-05-09T06:51:31.423Z,32.39
2024-05-09T06:52:30.436Z,32.32
2024-05-09T06:53:30.470Z,32.35
2024-05-09T06:54:30.407Z,32.36
2024-05-09T06:55:30.411Z,32.28
2024-05-09T06:56:30.511Z,32.28
2024-05-09T06:57:30.429Z,32.30
2024-05-09T06:58:30.425Z,32.24
2024-05-09T06:59:30.490Z,32.20
2024-05-09T07:00:38.005Z,32.25
2024-05-09T07:01:31.602Z,32.27
2024-05-09T07:02:30.488Z,32.23
2024-05-09T07:03:30.582Z,32.17
2024-05-09T07:04:30.504Z,32.23
2024-05-09T07:05:30.459Z,32.15
2024-05-09T07:06:30.433Z,32.18
2024-05-09T07:07:30.444Z,32.14
2024-05-09T07:08:30.461Z,32.02
2024-05-09T07:09:30.516Z,32.05
2024-05-09T07:10:34.887Z,32.15
2024-05-09T07:11:31.638Z,31.95
2024-05-09T07:12:30.530Z,31.96
2024-05-09T07:13:30.461Z,31.92
2024-05-09T07:14:30.530Z,31.88
2024-05-09T07:15:30.466Z,31.91
2024-05-09T07:16:30.463Z,31.86
2024-05-09T07:17:30.651Z,31.89
2024-05-09T07:18:30.673Z,31.93
2024-05-09T07:19:30.607Z,31.87
2024-05-09T07:20:34.514Z,31.86
2024-05-09T07:21:30.503Z,31.91
2024-05-09T07:22:30.482Z,31.85
2024-05-09T07:23:30.608Z,31.85
2024-05-09T07:24:30.477Z,31.87
2024-05-09T07:25:30.736Z,31.90
2024-05-09T07:26:30.522Z,31.90
2024-05-09T07:27:30.487Z,31.87
2024-05-09T07:28:30.484Z,31.94
2024-05-09T07:29:30.569Z,31.97
2024-05-09T07:30:33.673Z,31.98
2024-05-09T07:31:30.491Z,31.98
2024-05-09T07:32:30.578Z,31.98
2024-05-09T07:33:30.542Z,31.98
2024-05-09T07:34:30.650Z,31.98
2024-05-09T07:35:31.054Z,31.98
2024-05-09T07:36:30.495Z,31.98
2024-05-09T07:37:30.499Z,31.98
2024-05-09T07:38:30.570Z,32.05
2024-05-09T07:39:30.501Z,32.06
2024-05-09T07:40:35.691Z,32.05
2024-05-09T07:41:31.629Z,32.08
2024-05-09T07:42:30.526Z,32.05
2024-05-09T07:43:30.513Z,32.04
2024-05-09T07:44:30.705Z,32.09
2024-05-09T07:45:47.419Z,32.00
2024-05-09T07:47:37.140Z,31.96
2024-05-09T07:48:57.387Z,31.90
2024-05-09T07:50:01.289Z,31.92
2024-05-09T07:53:08.333Z,31.89
2024-05-09T07:53:40.446Z,31.80
2024-05-09T07:54:31.662Z,31.81
2024-05-09T07:55:30.818Z,31.77
2024-05-09T07:56:31.309Z,31.71
2024-05-09T07:57:30.599Z,31.76
2024-05-09T07:58:30.573Z,31.72
2024-05-09T07:59:33.296Z,31.65
2024-05-09T08:00:31.996Z,31.56
2024-05-09T08:01:30.625Z,31.56
2024-05-09T08:02:30.784Z,31.49
2024-05-09T08:03:30.638Z,31.61
2024-05-09T08:04:30.618Z,31.51
2024-05-09T08:05:30.643Z,31.41
2024-05-09T08:06:30.616Z,31.54
2024-05-09T08:07:30.579Z,31.54
2024-05-09T08:08:30.585Z,31.41
2024-05-09T08:09:30.608Z,31.40
2024-05-09T08:10:30.662Z,31.48
2024-05-09T08:11:30.663Z,31.38
2024-05-09T08:12:30.624Z,31.39
2024-05-09T08:13:30.606Z,31.41
2024-05-09T08:14:30.593Z,31.32
2024-05-09T08:15:30.669Z,31.26
2024-05-09T08:16:30.759Z,31.24
2024-05-09T08:17:30.840Z,31.22
2024-05-09T08:18:31.119Z,31.21
2024-05-09T08:19:30.899Z,31.15
2024-05-09T08:20:35.013Z,31.04
2024-05-09T08:21:31.071Z,31.06
2024-05-09T08:22:30.929Z,30.94
2024-05-09T08:23:30.944Z,30.94
2024-05-09T08:24:31.031Z,30.91
2024-05-09T08:25:30.950Z,30.88
2024-05-09T08:26:30.935Z,30.90
2024-05-09T08:27:30.994Z,30.80
2024-05-09T08:28:30.955Z,30.73
2024-05-09T08:29:30.947Z,30.73
2024-05-09T08:30:36.529Z,30.69
2024-05-09T08:31:32.020Z,30.69
2024-05-09T08:32:31.030Z,30.65
2024-05-09T08:33:31.248Z,30.67
2024-05-09T08:34:31.049Z,30.64
2024-05-09T08:35:30.968Z,30.63
2024-05-09T08:36:30.977Z,30.72
2024-05-09T08:38:30.966Z,30.71
2024-05-09T08:39:31.012Z,30.70
2024-05-09T08:40:35.230Z,30.78
2024-05-09T08:41:31.990Z,30.71
2024-05-09T08:42:31.010Z,30.80
2024-05-09T08:43:31.032Z,30.80
2024-05-09T08:44:31.501Z,30.81
2024-05-09T08:45:31.119Z,30.86
2024-05-09T08:46:31.047Z,30.90
2024-05-09T08:47:31.034Z,30.94
2024-05-09T08:48:31.152Z,30.93
2024-05-09T08:49:31.052Z,31.01
2024-05-09T08:50:37.896Z,31.04
2024-05-09T08:51:32.029Z,31.08
2024-05-09T08:52:30.989Z,31.07
2024-05-09T08:53:30.992Z,31.11
2024-05-09T08:54:31.020Z,31.13
2024-05-09T08:55:31.004Z,31.12
2024-05-09T08:56:30.990Z,31.16
2024-05-09T08:57:31.025Z,31.19
2024-05-09T08:58:30.999Z,31.23
2024-05-09T08:59:30.991Z,31.23
2024-05-09T09:00:36.597Z,31.20
2024-05-09T09:01:32.174Z,31.20
2024-05-09T09:02:31.171Z,31.23
2024-05-09T09:03:31.329Z,31.26
2024-05-09T09:04:31.214Z,31.30
2024-05-09T09:05:31.252Z,31.32
2024-05-09T09:06:31.086Z,31.20
2024-05-09T09:07:31.109Z,31.23
2024-05-09T09:08:31.069Z,31.25
2024-05-09T09:09:31.110Z,31.23
2024-05-09T09:10:32.711Z,31.28
2024-05-09T09:11:31.228Z,31.28
2024-05-09T09:12:31.370Z,31.28
2024-05-09T09:13:31.436Z,31.28
2024-05-09T09:14:31.470Z,31.29
2024-05-09T09:15:31.566Z,31.25
2024-05-09T09:16:31.598Z,31.26
2024-05-09T09:17:31.747Z,31.28
2024-05-09T09:18:31.979Z,31.25
2024-05-09T09:19:31.830Z,31.21
2024-05-09T09:20:36.438Z,31.18
2024-05-09T09:21:32.981Z,31.17
2024-05-09T09:22:31.838Z,31.21
2024-05-09T09:23:31.925Z,31.16
2024-05-09T09:24:31.888Z,31.09
2024-05-09T09:25:32.144Z,31.05
2024-05-09T09:26:31.848Z,30.94
2024-05-09T09:27:31.897Z,30.93
2024-05-09T09:28:31.846Z,30.84
2024-05-09T09:29:31.917Z,30.85
2024-05-09T09:30:36.961Z,30.79
2024-05-09T09:31:33.180Z,30.79
2024-05-09T09:32:32.111Z,30.82
2024-05-09T09:33:32.798Z,30.78
2024-05-09T09:34:32.309Z,30.72
2024-05-09T09:35:31.989Z,30.83
2024-05-09T09:36:32.056Z,30.85
2024-05-09T09:37:31.992Z,30.87
2024-05-09T09:38:32.001Z,30.91
2024-05-09T09:39:32.088Z,30.87
2024-05-09T09:40:34.033Z,30.78
2024-05-09T09:41:32.098Z,30.85
2024-05-09T09:42:32.137Z,30.84
2024-05-09T09:43:32.130Z,30.85
2024-05-09T09:44:32.951Z,30.78
2024-05-09T09:45:32.134Z,30.78
2024-05-09T09:46:32.216Z,30.78
2024-05-09T09:47:32.352Z,30.77
2024-05-09T09:48:32.440Z,30.77
2024-05-09T09:49:32.190Z,30.77
2024-05-09T09:50:34.776Z,30.77
2024-05-09T09:51:32.142Z,30.75
2024-05-09T09:52:32.153Z,30.77
2024-05-09T09:53:32.145Z,30.75
2024-05-09T09:54:32.173Z,30.75
2024-05-09T09:55:32.121Z,30.77
2024-05-09T09:56:32.131Z,30.77
2024-05-09T09:57:32.174Z,30.77
2024-05-09T09:58:32.169Z,30.78
2024-05-09T09:59:32.141Z,30.82
2024-05-09T10:00:33.459Z,30.76
2024-05-09T10:01:32.264Z,30.73
2024-05-09T10:02:32.348Z,30.75
2024-05-09T10:03:32.363Z,30.75
2024-05-09T10:04:32.275Z,30.72
2024-05-09T10:05:32.336Z,30.66
2024-05-09T10:06:32.202Z,30.69
2024-05-09T10:07:32.140Z,30.69
2024-05-09T10:08:32.153Z,30.64
2024-05-09T10:09:32.254Z,30.62
2024-05-09T10:10:33.295Z,30.56
2024-05-09T10:11:36.995Z,30.58
2024-05-09T10:12:33.426Z,30.56
2024-05-09T10:13:32.387Z,30.60
2024-05-09T10:14:32.337Z,30.58
2024-05-09T10:15:32.369Z,30.46
2024-05-09T10:16:32.409Z,30.48
2024-05-09T10:17:32.436Z,30.46
2024-05-09T10:18:34.201Z,30.47
2024-05-09T10:19:32.446Z,30.41
2024-05-09T10:20:32.931Z,30.41
2024-05-09T10:21:32.444Z,30.42
2024-05-09T10:22:32.430Z,30.44
2024-05-09T10:23:32.713Z,30.47
2024-05-09T10:24:32.556Z,30.41
2024-05-09T10:25:32.629Z,30.48
2024-05-09T10:26:32.588Z,30.46
2024-05-09T10:27:32.656Z,30.46
2024-05-09T10:28:32.741Z,30.44
2024-05-09T10:29:32.679Z,30.45
2024-05-09T10:30:36.179Z,30.40
2024-05-09T10:31:32.779Z,30.32
2024-05-09T10:32:32.860Z,30.34
2024-05-09T10:33:32.822Z,30.34
2024-05-09T10:34:32.864Z,30.39
2024-05-09T10:35:32.742Z,30.28
2024-05-09T10:36:32.796Z,30.22
2024-05-09T10:37:32.797Z,30.15
2024-05-09T10:38:32.758Z,30.18
2024-05-09T10:39:32.869Z,30.15
2024-05-09T10:40:32.841Z,30.09
2024-05-09T10:41:32.760Z,30.01
2024-05-09T10:42:32.794Z,29.99
2024-05-09T10:43:32.770Z,29.97
2024-05-09T10:44:32.752Z,29.98
2024-05-09T10:45:32.807Z,29.95
2024-05-09T10:46:32.816Z,29.92
2024-05-09T10:47:32.825Z,29.92
2024-05-09T10:48:32.835Z,29.86
2024-05-09T10:49:32.849Z,29.82
2024-05-09T10:50:34.484Z,29.82
2024-05-09T10:51:32.820Z,29.80
2024-05-09T10:52:32.775Z,29.82
2024-05-09T10:53:32.768Z,29.77
2024-05-09T10:54:32.814Z,29.86
2024-05-09T10:55:32.872Z,29.80
2024-05-09T10:56:32.774Z,29.79
2024-05-09T10:57:32.800Z,29.73
2024-05-09T10:58:32.800Z,29.73
2024-05-09T10:59:32.783Z,29.71
2024-05-09T11:00:35.976Z,29.69
2024-05-09T11:01:32.847Z,29.68
2024-05-09T11:02:33.038Z,29.67
2024-05-09T11:03:32.974Z,29.67
2024-05-09T11:04:32.846Z,29.63
2024-05-09T11:05:32.953Z,29.56
2024-05-09T11:06:32.900Z,29.50
2024-05-09T11:07:32.852Z,29.50
2024-05-09T11:08:33.037Z,29.46
2024-05-09T11:09:32.864Z,29.43
2024-05-09T11:10:34.420Z,29.39
2024-05-09T11:11:32.866Z,29.47
2024-05-09T11:12:32.870Z,29.53
2024-05-09T11:13:32.832Z,29.42
2024-05-09T11:14:32.827Z,29.33
2024-05-09T11:15:32.858Z,29.33
2024-05-09T11:16:32.840Z,29.32
2024-05-09T11:17:32.910Z,29.39
2024-05-09T11:18:36.580Z,29.33
2024-05-09T11:19:33.945Z,29.30
2024-05-09T11:20:35.056Z,29.36
2024-05-09T11:21:32.883Z,29.40
2024-05-09T11:22:32.842Z,29.33
2024-05-09T11:23:33.099Z,29.34
2024-05-09T11:24:32.902Z,29.33
2024-05-09T11:25:32.827Z,29.30
2024-05-09T11:26:32.829Z,29.29
2024-05-09T11:27:32.888Z,29.26
2024-05-09T11:28:32.828Z,29.24
2024-05-09T11:29:32.834Z,29.18
2024-05-09T11:30:32.875Z,29.14
2024-05-09T11:31:33.201Z,29.14
2024-05-09T11:32:33.331Z,29.08
2024-05-09T11:33:32.958Z,29.12
2024-05-09T11:34:33.014Z,29.10
2024-05-09T11:35:32.838Z,29.17
2024-05-09T11:36:32.967Z,29.10
2024-05-09T11:37:35.415Z,29.15
2024-05-09T11:38:32.852Z,29.01
2024-05-09T11:39:32.933Z,29.00
2024-05-09T11:40:34.577Z,29.02
2024-05-09T11:41:32.846Z,29.04
2024-05-09T11:42:32.902Z,29.02
2024-05-09T11:43:33.037Z,29.00
2024-05-09T11:44:32.861Z,29.01
2024-05-09T11:45:32.913Z,29.01
2024-05-09T11:46:32.866Z,28.92
2024-05-09T11:47:32.953Z,28.89
2024-05-09T11:48:33.022Z,28.88
2024-05-09T11:49:33.120Z,28.94
2024-05-09T11:50:35.760Z,28.92
2024-05-09T11:51:32.921Z,28.93
2024-05-09T11:52:32.879Z,28.85
2024-05-09T11:53:32.909Z,28.87
2024-05-09T11:54:32.940Z,28.82
2024-05-09T11:55:32.928Z,28.85
2024-05-09T11:56:32.882Z,28.77
2024-05-09T11:57:32.917Z,28.83
2024-05-09T11:58:32.888Z,28.93
2024-05-09T11:59:32.884Z,28.91
2024-05-09T12:00:37.004Z,28.89
2024-05-09T12:01:34.018Z,28.89
2024-05-09T12:02:32.987Z,28.85
2024-05-09T12:03:33.068Z,28.87
2024-05-09T12:04:33.025Z,28.85
2024-05-09T12:05:33.632Z,28.91
2024-05-09T12:06:32.939Z,28.93
2024-05-09T12:07:32.904Z,28.94
2024-05-09T12:08:32.914Z,28.92
2024-05-09T12:09:32.960Z,28.94
2024-05-09T12:10:35.498Z,28.91
2024-05-09T12:11:32.934Z,28.88
2024-05-09T12:12:35.361Z,28.82
2024-05-09T12:13:33.036Z,28.86
2024-05-09T12:14:32.913Z,28.86
2024-05-09T12:15:33.070Z,28.79
2024-05-09T12:16:33.147Z,28.82
2024-05-09T12:17:33.070Z,28.88
2024-05-09T12:18:33.028Z,28.92
2024-05-09T12:19:33.012Z,28.94
2024-05-09T12:20:37.292Z,28.94
2024-05-09T12:21:33.977Z,28.91
2024-05-09T12:22:32.943Z,28.96
2024-05-09T12:23:32.946Z,29.04
2024-05-09T12:24:33.010Z,29.09
2024-05-09T12:25:32.976Z,29.06
2024-05-09T12:26:32.937Z,29.11
2024-05-09T12:27:33.007Z,29.16
2024-05-09T12:28:33.012Z,29.15
2024-05-09T12:29:35.002Z,29.15
2024-05-09T12:30:37.836Z,29.16
2024-05-09T12:31:34.007Z,29.23
2024-05-09T12:32:32.993Z,29.29
2024-05-09T12:33:33.081Z,29.28
2024-05-09T12:34:33.010Z,29.34
2024-05-09T12:35:33.215Z,29.38
2024-05-09T12:36:33.019Z,29.42
2024-05-09T12:37:32.968Z,29.45
2024-05-09T12:38:32.956Z,29.44
2024-05-09T12:39:33.022Z,29.45
2024-05-09T12:40:36.595Z,29.54
2024-05-09T12:41:33.966Z,29.62
2024-05-09T12:42:33.899Z,29.61
2024-05-09T12:43:33.006Z,29.51
2024-05-09T12:44:32.969Z,29.64
2024-05-09T12:45:33.074Z,29.65
2024-05-09T12:46:33.142Z,29.71
2024-05-09T12:47:33.086Z,29.77
2024-05-09T12:48:33.138Z,29.77
2024-05-09T12:49:33.131Z,29.77
2024-05-09T12:50:34.466Z,29.81
2024-05-09T12:51:33.048Z,29.88
2024-05-09T12:52:33.007Z,29.91
2024-05-09T12:53:32.986Z,29.84
2024-05-09T12:54:32.994Z,29.82
2024-05-09T12:55:41.066Z,29.82
2024-05-09T12:56:33.987Z,29.87